sensor_id;sensor_type;location;lat;lon;timestamp;P1;durP1;ratioP1;P2;durP2;ratioP2
38785;SDS011;24535;45.508;12.252;2024-01-07T00:02:21;1.37;;;1.10;;
38785;SDS011;24535;45.508;12.252;2024-01-07T00:04:52;3.22;;;1.42;;
38785;SDS011;24535;45.508;12.252;2024-01-07T00:07:33;3.30;;;1.38;;
38785;SDS011;24535;45.508;12.252;2024-01-07T00:10:05;1.80;;;1.20;;
38785;SDS011;24535;45.508;12.252;2024-01-07T00:12:39;1.90;;;1.48;;
38785;SDS011;24535;45.508;12.252;2024-01-07T00:15:11;2.40;;;1.70;;
38785;SDS011;24535;45.508;12.252;2024-01-07T00:17:52;2.22;;;1.40;;
38785;SDS011;24535;45.508;12.252;2024-01-07T00:20:55;1.35;;;1.02;;
38785;SDS011;24535;45.508;12.252;2024-01-07T00:23:21;1.92;;;1.42;;
38785;SDS011;24535;45.508;12.252;2024-01-07T00:25:52;2.65;;;1.42;;
38785;SDS011;24535;45.508;12.252;2024-01-07T00:28:28;3.97;;;1.65;;
38785;SDS011;24535;45.508;12.252;2024-01-07T00:30:54;1.88;;;1.20;;
38785;SDS011;24535;45.508;12.252;2024-01-07T00:33:19;2.03;;;1.33;;
38785;SDS011;24535;45.508;12.252;2024-01-07T00:35:48;2.53;;;1.33;;
38785;SDS011;24535;45.508;12.252;2024-01-07T00:38:16;1.75;;;1.20;;
38785;SDS011;24535;45.508;12.252;2024-01-07T00:40:44;2.35;;;1.63;;
38785;SDS011;24535;45.508;12.252;2024-01-07T00:43:10;2.83;;;1.70;;
38785;SDS011;24535;45.508;12.252;2024-01-07T00:46:10;1.77;;;1.40;;
38785;SDS011;24535;45.508;12.252;2024-01-07T00:48:35;2.42;;;1.55;;
38785;SDS011;24535;45.508;12.252;2024-01-07T00:51:10;2.05;;;1.33;;
38785;SDS011;24535;45.508;12.252;2024-01-07T00:56:29;1.85;;;1.23;;
38785;SDS011;24535;45.508;12.252;2024-01-07T00:59:04;1.98;;;1.27;;
38785;SDS011;24535;45.508;12.252;2024-01-07T01:01:34;1.30;;;1.20;;
38785;SDS011;24535;45.508;12.252;2024-01-07T01:04:02;2.28;;;1.55;;
38785;SDS011;24535;45.508;12.252;2024-01-07T01:16:38;2.85;;;1.35;;
38785;SDS011;24535;45.508;12.252;2024-01-07T01:19:06;1.90;;;1.33;;
38785;SDS011;24535;45.508;12.252;2024-01-07T01:21:38;1.70;;;1.17;;
38785;SDS011;24535;45.508;12.252;2024-01-07T01:24:10;2.20;;;1.10;;
38785;SDS011;24535;45.508;12.252;2024-01-07T01:26:36;1.38;;;1.08;;
38785;SDS011;24535;45.508;12.252;2024-01-07T01:32:04;2.90;;;1.67;;
38785;SDS011;24535;45.508;12.252;2024-01-07T01:37:33;2.17;;;1.38;;
38785;SDS011;24535;45.508;12.252;2024-01-07T01:40:03;1.70;;;1.23;;
38785;SDS011;24535;45.508;12.252;2024-01-07T01:42:34;1.55;;;1.33;;
38785;SDS011;24535;45.508;12.252;2024-01-07T01:45:06;1.77;;;1.40;;
38785;SDS011;24535;45.508;12.252;2024-01-07T01:50:31;1.50;;;1.30;;
38785;SDS011;24535;45.508;12.252;2024-01-07T01:53:00;1.83;;;1.20;;
38785;SDS011;24535;45.508;12.252;2024-01-07T01:55:26;2.80;;;1.20;;
38785;SDS011;24535;45.508;12.252;2024-01-07T01:57:52;1.63;;;1.20;;
38785;SDS011;24535;45.508;12.252;2024-01-07T02:00:26;2.50;;;1.60;;
38785;SDS011;24535;45.508;12.252;2024-01-07T02:02:52;2.20;;;1.70;;
38785;SDS011;24535;45.508;12.252;2024-01-07T02:05:20;1.80;;;1.00;;
38785;SDS011;24535;45.508;12.252;2024-01-07T02:07:53;2.33;;;1.52;;
38785;SDS011;24535;45.508;12.252;2024-01-07T02:10:24;5.25;;;2.03;;
38785;SDS011;24535;45.508;12.252;2024-01-07T02:12:52;2.20;;;1.80;;
38785;SDS011;24535;45.508;12.252;2024-01-07T02:18:14;3.22;;;1.77;;
38785;SDS011;24535;45.508;12.252;2024-01-07T02:20:39;2.42;;;1.70;;
38785;SDS011;24535;45.508;12.252;2024-01-07T02:23:05;4.88;;;2.25;;
38785;SDS011;24535;45.508;12.252;2024-01-07T02:25:37;2.35;;;1.92;;
38785;SDS011;24535;45.508;12.252;2024-01-07T02:28:03;2.10;;;1.80;;
38785;SDS011;24535;45.508;12.252;2024-01-07T02:30:35;2.10;;;1.90;;
38785;SDS011;24535;45.508;12.252;2024-01-07T02:33:01;2.75;;;2.08;;
38785;SDS011;24535;45.508;12.252;2024-01-07T02:35:28;3.13;;;1.95;;
38785;SDS011;24535;45.508;12.252;2024-01-07T02:37:56;2.63;;;1.77;;
38785;SDS011;24535;45.508;12.252;2024-01-07T02:40:22;1.92;;;1.70;;
38785;SDS011;24535;45.508;12.252;2024-01-07T02:42:56;2.97;;;2.00;;
38785;SDS011;24535;45.508;12.252;2024-01-07T02:48:03;2.35;;;1.67;;
38785;SDS011;24535;45.508;12.252;2024-01-07T02:50:43;5.32;;;1.80;;
38785;SDS011;24535;45.508;12.252;2024-01-07T02:53:08;1.73;;;1.60;;
38785;SDS011;24535;45.508;12.252;2024-01-07T02:55:35;1.17;;;1.08;;
38785;SDS011;24535;45.508;12.252;2024-01-07T03:00:52;1.38;;;1.02;;
38785;SDS011;24535;45.508;12.252;2024-01-07T03:03:24;1.63;;;1.25;;
38785;SDS011;24535;45.508;12.252;2024-01-07T03:05:49;1.58;;;0.98;;
38785;SDS011;24535;45.508;12.252;2024-01-07T03:08:17;1.55;;;1.00;;
38785;SDS011;24535;45.508;12.252;2024-01-07T03:10:45;1.65;;;1.05;;
38785;SDS011;24535;45.508;12.252;2024-01-07T03:13:11;1.98;;;0.80;;
38785;SDS011;24535;45.508;12.252;2024-01-07T03:15:37;1.05;;;0.90;;
38785;SDS011;24535;45.508;12.252;2024-01-07T03:18:03;2.05;;;0.95;;
38785;SDS011;24535;45.508;12.252;2024-01-07T03:23:22;1.30;;;0.93;;
38785;SDS011;24535;45.508;12.252;2024-01-07T03:25:50;1.85;;;1.00;;
38785;SDS011;24535;45.508;12.252;2024-01-07T03:28:28;1.63;;;0.80;;
38785;SDS011;24535;45.508;12.252;2024-01-07T03:31:03;1.10;;;0.70;;
38785;SDS011;24535;45.508;12.252;2024-01-07T03:33:44;1.50;;;0.73;;
38785;SDS011;24535;45.508;12.252;2024-01-07T03:39:34;1.63;;;0.68;;
38785;SDS011;24535;45.508;12.252;2024-01-07T03:42:06;0.50;;;0.40;;
38785;SDS011;24535;45.508;12.252;2024-01-07T03:44:40;0.52;;;0.43;;
38785;SDS011;24535;45.508;12.252;2024-01-07T03:47:10;0.77;;;0.60;;
38785;SDS011;24535;45.508;12.252;2024-01-07T03:49:46;0.40;;;0.40;;
38785;SDS011;24535;45.508;12.252;2024-01-07T03:52:18;0.47;;;0.47;;
38785;SDS011;24535;45.508;12.252;2024-01-07T03:54:53;0.68;;;0.50;;
38785;SDS011;24535;45.508;12.252;2024-01-07T03:57:37;0.52;;;0.35;;
38785;SDS011;24535;45.508;12.252;2024-01-07T04:00:02;1.23;;;0.70;;
38785;SDS011;24535;45.508;12.252;2024-01-07T04:02:43;0.73;;;0.30;;
38785;SDS011;24535;45.508;12.252;2024-01-07T04:05:24;0.40;;;0.35;;
38785;SDS011;24535;45.508;12.252;2024-01-07T04:07:55;0.30;;;0.30;;
38785;SDS011;24535;45.508;12.252;2024-01-07T04:10:27;0.80;;;0.43;;
38785;SDS011;24535;45.508;12.252;2024-01-07T04:13:01;0.52;;;0.30;;
38785;SDS011;24535;45.508;12.252;2024-01-07T04:18:17;0.35;;;0.30;;
38785;SDS011;24535;45.508;12.252;2024-01-07T04:20:55;0.30;;;0.30;;
38785;SDS011;24535;45.508;12.252;2024-01-07T04:23:23;0.30;;;0.30;;
38785;SDS011;24535;45.508;12.252;2024-01-07T04:28:43;0.35;;;0.30;;
38785;SDS011;24535;45.508;12.252;2024-01-07T04:31:32;0.30;;;0.30;;
38785;SDS011;24535;45.508;12.252;2024-01-07T04:33:58;0.40;;;0.40;;
38785;SDS011;24535;45.508;12.252;2024-01-07T04:36:23;0.75;;;0.40;;
38785;SDS011;24535;45.508;12.252;2024-01-07T04:39:00;0.50;;;0.40;;
38785;SDS011;24535;45.508;12.252;2024-01-07T04:41:29;0.47;;;0.30;;
38785;SDS011;24535;45.508;12.252;2024-01-07T04:44:00;0.83;;;0.40;;
38785;SDS011;24535;45.508;12.252;2024-01-07T04:46:38;0.45;;;0.30;;
38785;SDS011;24535;45.508;12.252;2024-01-07T04:49:07;0.32;;;0.30;;
38785;SDS011;24535;45.508;12.252;2024-01-07T04:51:45;0.35;;;0.30;;
38785;SDS011;24535;45.508;12.252;2024-01-07T04:54:20;0.35;;;0.35;;
38785;SDS011;24535;45.508;12.252;2024-01-07T04:56:46;0.25;;;0.25;;
38785;SDS011;24535;45.508;12.252;2024-01-07T05:02:09;0.60;;;0.40;;
38785;SDS011;24535;45.508;12.252;2024-01-07T05:10:50;0.30;;;0.30;;
38785;SDS011;24535;45.508;12.252;2024-01-07T05:13:22;0.30;;;0.30;;
38785;SDS011;24535;45.508;12.252;2024-01-07T05:15:53;0.40;;;0.30;;
38785;SDS011;24535;45.508;12.252;2024-01-07T05:18:25;0.47;;;0.30;;
38785;SDS011;24535;45.508;12.252;2024-01-07T05:20:51;0.30;;;0.30;;
38785;SDS011;24535;45.508;12.252;2024-01-07T05:23:25;1.08;;;0.22;;
38785;SDS011;24535;45.508;12.252;2024-01-07T05:25:51;0.50;;;0.20;;
38785;SDS011;24535;45.508;12.252;2024-01-07T05:28:29;0.30;;;0.30;;
38785;SDS011;24535;45.508;12.252;2024-01-07T05:30:54;0.30;;;0.30;;
38785;SDS011;24535;45.508;12.252;2024-01-07T05:33:20;0.43;;;0.28;;
38785;SDS011;24535;45.508;12.252;2024-01-07T05:38:33;0.20;;;0.20;;
38785;SDS011;24535;45.508;12.252;2024-01-07T05:40:58;0.70;;;0.30;;
38785;SDS011;24535;45.508;12.252;2024-01-07T05:43:30;0.35;;;0.32;;
38785;SDS011;24535;45.508;12.252;2024-01-07T05:46:05;0.20;;;0.20;;
38785;SDS011;24535;45.508;12.252;2024-01-07T05:48:35;1.15;;;0.35;;
38785;SDS011;24535;45.508;12.252;2024-01-07T05:51:20;1.88;;;0.20;;
38785;SDS011;24535;45.508;12.252;2024-01-07T05:53:45;0.20;;;0.20;;
38785;SDS011;24535;45.508;12.252;2024-01-07T05:56:27;0.43;;;0.30;;
38785;SDS011;24535;45.508;12.252;2024-01-07T05:58:53;0.55;;;0.30;;
38785;SDS011;24535;45.508;12.252;2024-01-07T06:01:37;0.52;;;0.30;;
38785;SDS011;24535;45.508;12.252;2024-01-07T06:04:05;0.30;;;0.25;;
38785;SDS011;24535;45.508;12.252;2024-01-07T06:06:53;0.30;;;0.30;;
38785;SDS011;24535;45.508;12.252;2024-01-07T06:09:26;0.40;;;0.30;;
38785;SDS011;24535;45.508;12.252;2024-01-07T06:12:01;0.93;;;0.40;;
38785;SDS011;24535;45.508;12.252;2024-01-07T06:14:27;0.45;;;0.30;;
38785;SDS011;24535;45.508;12.252;2024-01-07T06:16:53;0.20;;;0.20;;
38785;SDS011;24535;45.508;12.252;2024-01-07T06:19:19;0.30;;;0.30;;
38785;SDS011;24535;45.508;12.252;2024-01-07T06:22:02;0.20;;;0.20;;
38785;SDS011;24535;45.508;12.252;2024-01-07T06:24:27;0.30;;;0.30;;
38785;SDS011;24535;45.508;12.252;2024-01-07T06:26:53;0.30;;;0.30;;
38785;SDS011;24535;45.508;12.252;2024-01-07T06:31:56;0.20;;;0.20;;
38785;SDS011;24535;45.508;12.252;2024-01-07T06:34:36;1.38;;;0.20;;
38785;SDS011;24535;45.508;12.252;2024-01-07T06:40:04;1.17;;;0.40;;
38785;SDS011;24535;45.508;12.252;2024-01-07T06:42:48;1.10;;;0.38;;
38785;SDS011;24535;45.508;12.252;2024-01-07T06:45:19;0.30;;;0.30;;
38785;SDS011;24535;45.508;12.252;2024-01-07T06:47:45;0.52;;;0.43;;
38785;SDS011;24535;45.508;12.252;2024-01-07T06:50:11;0.57;;;0.40;;
38785;SDS011;24535;45.508;12.252;2024-01-07T06:52:36;0.30;;;0.30;;
38785;SDS011;24535;45.508;12.252;2024-01-07T06:55:07;0.40;;;0.40;;
38785;SDS011;24535;45.508;12.252;2024-01-07T06:57:39;0.80;;;0.45;;
38785;SDS011;24535;45.508;12.252;2024-01-07T07:00:08;0.35;;;0.32;;
38785;SDS011;24535;45.508;12.252;2024-01-07T07:02:40;0.50;;;0.50;;
38785;SDS011;24535;45.508;12.252;2024-01-07T07:05:19;0.60;;;0.60;;
38785;SDS011;24535;45.508;12.252;2024-01-07T07:07:54;0.30;;;0.30;;
38785;SDS011;24535;45.508;12.252;2024-01-07T07:10:40;1.05;;;0.40;;
38785;SDS011;24535;45.508;12.252;2024-01-07T07:13:18;1.85;;;0.50;;
38785;SDS011;24535;45.508;12.252;2024-01-07T07:15:44;0.40;;;0.30;;
38785;SDS011;24535;45.508;12.252;2024-01-07T07:18:18;0.50;;;0.40;;
38785;SDS011;24535;45.508;12.252;2024-01-07T07:20:52;0.98;;;0.43;;
38785;SDS011;24535;45.508;12.252;2024-01-07T07:23:20;0.65;;;0.45;;
38785;SDS011;24535;45.508;12.252;2024-01-07T07:25:49;0.68;;;0.35;;
38785;SDS011;24535;45.508;12.252;2024-01-07T07:28:32;0.30;;;0.30;;
38785;SDS011;24535;45.508;12.252;2024-01-07T07:30:57;0.82;;;0.50;;
38785;SDS011;24535;45.508;12.252;2024-01-07T07:33:32;1.00;;;0.60;;
38785;SDS011;24535;45.508;12.252;2024-01-07T07:39:21;0.50;;;0.40;;
38785;SDS011;24535;45.508;12.252;2024-01-07T07:41:56;1.42;;;0.50;;
38785;SDS011;24535;45.508;12.252;2024-01-07T07:44:21;0.60;;;0.60;;
38785;SDS011;24535;45.508;12.252;2024-01-07T07:46:56;1.02;;;0.93;;
38785;SDS011;24535;45.508;12.252;2024-01-07T07:49:24;3.08;;;0.93;;
38785;SDS011;24535;45.508;12.252;2024-01-07T08:01:10;1.42;;;0.90;;
38785;SDS011;24535;45.508;12.252;2024-01-07T08:03:38;1.05;;;0.85;;
38785;SDS011;24535;45.508;12.252;2024-01-07T08:06:10;1.30;;;1.07;;
38785;SDS011;24535;45.508;12.252;2024-01-07T08:34:30;1.85;;;0.88;;
38785;SDS011;24535;45.508;12.252;2024-01-07T08:37:06;1.60;;;1.17;;
38785;SDS011;24535;45.508;12.252;2024-01-07T09:22:08;1.52;;;1.33;;
38785;SDS011;24535;45.508;12.252;2024-01-07T10:24:37;4.35;;;2.78;;
38785;SDS011;24535;45.508;12.252;2024-01-07T10:27:09;4.22;;;2.63;;
38785;SDS011;24535;45.508;12.252;2024-01-07T11:51:56;3.63;;;3.10;;
38785;SDS011;24535;45.508;12.252;2024-01-07T11:54:25;4.38;;;3.42;;
38785;SDS011;24535;45.508;12.252;2024-01-07T11:56:57;4.50;;;3.45;;
38785;SDS011;24535;45.508;12.252;2024-01-07T11:59:38;3.90;;;3.50;;
38785;SDS011;24535;45.508;12.252;2024-01-07T12:02:07;4.53;;;3.78;;
38785;SDS011;24535;45.508;12.252;2024-01-07T12:04:33;4.15;;;3.75;;
38785;SDS011;24535;45.508;12.252;2024-01-07T12:07:11;4.40;;;3.70;;
38785;SDS011;24535;45.508;12.252;2024-01-07T12:22:33;4.45;;;3.72;;
38785;SDS011;24535;45.508;12.252;2024-01-07T12:35:38;4.88;;;4.45;;
38785;SDS011;24535;45.508;12.252;2024-01-07T12:47:12;5.55;;;4.95;;
38785;SDS011;24535;45.508;12.252;2024-01-07T13:08:45;6.28;;;5.15;;
38785;SDS011;24535;45.508;12.252;2024-01-07T13:11:16;5.57;;;5.07;;
38785;SDS011;24535;45.508;12.252;2024-01-07T13:13:57;5.10;;;4.43;;
38785;SDS011;24535;45.508;12.252;2024-01-07T13:16:28;5.50;;;4.90;;
38785;SDS011;24535;45.508;12.252;2024-01-07T13:18:59;6.23;;;4.10;;
38785;SDS011;24535;45.508;12.252;2024-01-07T13:34:20;6.25;;;5.28;;
38785;SDS011;24535;45.508;12.252;2024-01-07T13:37:04;7.15;;;5.13;;
38785;SDS011;24535;45.508;12.252;2024-01-07T13:45:25;7.03;;;5.20;;
38785;SDS011;24535;45.508;12.252;2024-01-07T13:47:51;6.88;;;5.95;;
38785;SDS011;24535;45.508;12.252;2024-01-07T13:50:25;6.00;;;5.07;;
38785;SDS011;24535;45.508;12.252;2024-01-07T13:55:48;8.18;;;5.88;;
38785;SDS011;24535;45.508;12.252;2024-01-07T13:58:37;7.33;;;5.87;;
38785;SDS011;24535;45.508;12.252;2024-01-07T14:01:09;10.00;;;5.82;;
38785;SDS011;24535;45.508;12.252;2024-01-07T14:03:34;6.22;;;5.55;;
38785;SDS011;24535;45.508;12.252;2024-01-07T14:11:10;7.40;;;5.07;;
38785;SDS011;24535;45.508;12.252;2024-01-07T14:13:38;8.05;;;5.47;;
38785;SDS011;24535;45.508;12.252;2024-01-07T14:16:04;7.47;;;5.88;;
38785;SDS011;24535;45.508;12.252;2024-01-07T14:18:36;5.88;;;5.28;;
38785;SDS011;24535;45.508;12.252;2024-01-07T14:21:05;6.63;;;5.53;;
38785;SDS011;24535;45.508;12.252;2024-01-07T14:37:03;8.25;;;6.32;;
38785;SDS011;24535;45.508;12.252;2024-01-07T14:39:40;6.75;;;6.05;;
38785;SDS011;24535;45.508;12.252;2024-01-07T14:42:15;8.48;;;6.03;;
38785;SDS011;24535;45.508;12.252;2024-01-07T14:50:09;8.23;;;6.13;;
38785;SDS011;24535;45.508;12.252;2024-01-07T14:52:38;6.90;;;6.07;;
38785;SDS011;24535;45.508;12.252;2024-01-07T14:55:03;7.23;;;6.17;;
38785;SDS011;24535;45.508;12.252;2024-01-07T14:57:35;6.95;;;6.25;;
38785;SDS011;24535;45.508;12.252;2024-01-07T15:00:01;7.40;;;6.35;;
38785;SDS011;24535;45.508;12.252;2024-01-07T15:02:26;7.07;;;6.20;;
38785;SDS011;24535;45.508;12.252;2024-01-07T15:20:41;8.43;;;6.88;;
38785;SDS011;24535;45.508;12.252;2024-01-07T15:32:15;7.32;;;6.45;;
38785;SDS011;24535;45.508;12.252;2024-01-07T15:42:26;8.63;;;6.65;;
38785;SDS011;24535;45.508;12.252;2024-01-07T15:55:15;7.82;;;7.00;;
38785;SDS011;24535;45.508;12.252;2024-01-07T16:03:54;10.27;;;7.68;;
38785;SDS011;24535;45.508;12.252;2024-01-07T16:06:32;8.90;;;7.50;;
38785;SDS011;24535;45.508;12.252;2024-01-07T16:09:19;9.13;;;7.57;;
38785;SDS011;24535;45.508;12.252;2024-01-07T16:14:57;9.23;;;6.60;;
38785;SDS011;24535;45.508;12.252;2024-01-07T16:17:37;8.95;;;7.18;;
38785;SDS011;24535;45.508;12.252;2024-01-07T16:28:57;8.23;;;7.25;;
38785;SDS011;24535;45.508;12.252;2024-01-07T16:41:47;7.72;;;6.93;;
38785;SDS011;24535;45.508;12.252;2024-01-07T16:46:51;7.28;;;6.57;;
38785;SDS011;24535;45.508;12.252;2024-01-07T16:54:43;9.18;;;7.50;;
38785;SDS011;24535;45.508;12.252;2024-01-07T16:57:17;9.52;;;7.82;;
38785;SDS011;24535;45.508;12.252;2024-01-07T17:05:40;11.80;;;8.98;;
38785;SDS011;24535;45.508;12.252;2024-01-07T17:21:18;9.85;;;8.20;;
38785;SDS011;24535;45.508;12.252;2024-01-07T17:23:47;11.00;;;8.40;;
38785;SDS011;24535;45.508;12.252;2024-01-07T17:34:08;8.02;;;7.07;;
38785;SDS011;24535;45.508;12.252;2024-01-07T17:36:42;9.35;;;7.40;;
38785;SDS011;24535;45.508;12.252;2024-01-07T17:39:32;8.38;;;7.35;;
38785;SDS011;24535;45.508;12.252;2024-01-07T17:41:58;10.25;;;7.72;;
38785;SDS011;24535;45.508;12.252;2024-01-07T17:47:32;11.68;;;7.13;;
38785;SDS011;24535;45.508;12.252;2024-01-07T17:55:11;11.93;;;7.13;;
38785;SDS011;24535;45.508;12.252;2024-01-07T18:00:29;9.82;;;7.30;;
38785;SDS011;24535;45.508;12.252;2024-01-07T18:02:55;10.82;;;7.45;;
38785;SDS011;24535;45.508;12.252;2024-01-07T18:08:32;10.98;;;7.50;;
38785;SDS011;24535;45.508;12.252;2024-01-07T18:16:20;9.50;;;7.15;;
38785;SDS011;24535;45.508;12.252;2024-01-07T18:18:46;11.38;;;7.93;;
38785;SDS011;24535;45.508;12.252;2024-01-07T18:21:15;9.02;;;7.32;;
38785;SDS011;24535;45.508;12.252;2024-01-07T18:23:48;10.30;;;7.50;;
38785;SDS011;24535;45.508;12.252;2024-01-07T18:26:39;12.57;;;8.02;;
38785;SDS011;24535;45.508;12.252;2024-01-07T18:47:16;10.10;;;7.07;;
38785;SDS011;24535;45.508;12.252;2024-01-07T18:49:46;11.68;;;8.00;;
38785;SDS011;24535;45.508;12.252;2024-01-07T19:00:29;9.38;;;6.57;;
38785;SDS011;24535;45.508;12.252;2024-01-07T19:21:53;7.97;;;6.53;;
38785;SDS011;24535;45.508;12.252;2024-01-07T19:29:45;8.82;;;7.78;;
38785;SDS011;24535;45.508;12.252;2024-01-07T19:32:26;14.65;;;8.93;;
38785;SDS011;24535;45.508;12.252;2024-01-07T19:35:02;11.55;;;9.02;;
38785;SDS011;24535;45.508;12.252;2024-01-07T19:51:53;8.48;;;6.45;;
38785;SDS011;24535;45.508;12.252;2024-01-07T20:10:15;7.47;;;5.68;;
38785;SDS011;24535;45.508;12.252;2024-01-07T20:12:41;8.73;;;6.20;;
38785;SDS011;24535;45.508;12.252;2024-01-07T20:15:22;8.77;;;6.30;;
38785;SDS011;24535;45.508;12.252;2024-01-07T20:18:26;9.73;;;6.75;;
38785;SDS011;24535;45.508;12.252;2024-01-07T20:23:58;8.05;;;6.80;;
38785;SDS011;24535;45.508;12.252;2024-01-07T20:32:09;9.48;;;6.13;;
38785;SDS011;24535;45.508;12.252;2024-01-07T20:35:13;8.18;;;6.90;;
38785;SDS011;24535;45.508;12.252;2024-01-07T20:38:04;7.63;;;6.25;;
38785;SDS011;24535;45.508;12.252;2024-01-07T20:40:29;8.23;;;5.93;;
38785;SDS011;24535;45.508;12.252;2024-01-07T20:51:13;10.32;;;7.15;;
38785;SDS011;24535;45.508;12.252;2024-01-07T20:53:39;9.85;;;7.57;;
38785;SDS011;24535;45.508;12.252;2024-01-07T20:58:42;9.95;;;7.43;;
38785;SDS011;24535;45.508;12.252;2024-01-07T21:18:33;7.63;;;6.82;;
38785;SDS011;24535;45.508;12.252;2024-01-07T21:20:59;9.63;;;8.45;;
38785;SDS011;24535;45.508;12.252;2024-01-07T21:23:29;10.73;;;8.45;;
38785;SDS011;24535;45.508;12.252;2024-01-07T21:29:02;8.38;;;7.25;;
38785;SDS011;24535;45.508;12.252;2024-01-07T21:31:28;12.27;;;7.75;;
38785;SDS011;24535;45.508;12.252;2024-01-07T21:33:57;9.88;;;8.43;;
38785;SDS011;24535;45.508;12.252;2024-01-07T21:47:32;10.50;;;9.05;;
38785;SDS011;24535;45.508;12.252;2024-01-07T21:49:58;11.38;;;8.77;;
38785;SDS011;24535;45.508;12.252;2024-01-07T21:52:39;10.88;;;9.32;;
38785;SDS011;24535;45.508;12.252;2024-01-07T22:01:08;10.25;;;9.07;;
38785;SDS011;24535;45.508;12.252;2024-01-07T22:03:39;11.63;;;9.75;;
38785;SDS011;24535;45.508;12.252;2024-01-07T22:06:08;12.15;;;10.68;;
38785;SDS011;24535;45.508;12.252;2024-01-07T22:11:23;10.40;;;9.07;;
38785;SDS011;24535;45.508;12.252;2024-01-07T22:13:49;12.18;;;9.57;;
38785;SDS011;24535;45.508;12.252;2024-01-07T22:16:21;12.52;;;9.32;;
38785;SDS011;24535;45.508;12.252;2024-01-07T22:18:55;10.38;;;9.30;;
38785;SDS011;24535;45.508;12.252;2024-01-07T22:21:21;11.70;;;9.73;;
38785;SDS011;24535;45.508;12.252;2024-01-07T22:23:52;13.40;;;8.98;;
38785;SDS011;24535;45.508;12.252;2024-01-07T22:26:34;11.25;;;9.60;;
38785;SDS011;24535;45.508;12.252;2024-01-07T22:29:00;12.77;;;10.60;;
38785;SDS011;24535;45.508;12.252;2024-01-07T22:31:28;12.00;;;9.65;;
38785;SDS011;24535;45.508;12.252;2024-01-07T22:34:00;11.70;;;9.80;;
38785;SDS011;24535;45.508;12.252;2024-01-07T22:36:43;12.27;;;10.07;;
38785;SDS011;24535;45.508;12.252;2024-01-07T22:47:10;11.82;;;10.52;;
38785;SDS011;24535;45.508;12.252;2024-01-07T22:49:42;10.50;;;9.40;;
38785;SDS011;24535;45.508;12.252;2024-01-07T22:52:13;11.63;;;10.13;;
38785;SDS011;24535;45.508;12.252;2024-01-07T22:54:45;11.50;;;9.70;;
38785;SDS011;24535;45.508;12.252;2024-01-07T22:57:19;12.35;;;10.00;;
38785;SDS011;24535;45.508;12.252;2024-01-07T22:59:51;13.50;;;9.90;;
38785;SDS011;24535;45.508;12.252;2024-01-07T23:02:29;12.23;;;10.00;;
38785;SDS011;24535;45.508;12.252;2024-01-07T23:05:00;13.70;;;10.25;;
38785;SDS011;24535;45.508;12.252;2024-01-07T23:07:35;11.80;;;9.80;;
38785;SDS011;24535;45.508;12.252;2024-01-07T23:10:07;11.38;;;10.18;;
38785;SDS011;24535;45.508;12.252;2024-01-07T23:12:54;11.90;;;10.18;;
38785;SDS011;24535;45.508;12.252;2024-01-07T23:15:26;13.23;;;10.70;;
38785;SDS011;24535;45.508;12.252;2024-01-07T23:17:55;12.90;;;11.07;;
38785;SDS011;24535;45.508;12.252;2024-01-07T23:20:29;13.70;;;11.43;;
38785;SDS011;24535;45.508;12.252;2024-01-07T23:22:58;13.18;;;11.20;;
38785;SDS011;24535;45.508;12.252;2024-01-07T23:25:24;13.88;;;11.50;;
38785;SDS011;24535;45.508;12.252;2024-01-07T23:27:49;13.65;;;11.68;;
38785;SDS011;24535;45.508;12.252;2024-01-07T23:30:15;12.30;;;10.80;;
38785;SDS011;24535;45.508;12.252;2024-01-07T23:32:46;13.05;;;11.38;;
38785;SDS011;24535;45.508;12.252;2024-01-07T23:35:25;13.30;;;11.45;;
38785;SDS011;24535;45.508;12.252;2024-01-07T23:37:55;13.48;;;11.80;;
38785;SDS011;24535;45.508;12.252;2024-01-07T23:40:32;15.45;;;11.85;;
38785;SDS011;24535;45.508;12.252;2024-01-07T23:43:01;12.95;;;11.57;;
38785;SDS011;24535;45.508;12.252;2024-01-07T23:45:36;13.10;;;11.70;;
38785;SDS011;24535;45.508;12.252;2024-01-07T23:48:02;13.13;;;11.23;;
38785;SDS011;24535;45.508;12.252;2024-01-07T23:50:44;13.57;;;11.88;;
38785;SDS011;24535;45.508;12.252;2024-01-07T23:53:16;13.73;;;11.30;;
38785;SDS011;24535;45.508;12.252;2024-01-07T23:55:44;14.85;;;11.88;;
38785;SDS011;24535;45.508;12.252;2024-01-07T23:58:16;17.30;;;12.50;;
